sensor_id;sensor_type;location;lat;lon;timestamp;temperature;humidity
48264;DHT22;34086;51.076;13.722;2023-04-25T00:00:15;10.00;99.90
48264;DHT22;34086;51.076;13.722;2023-04-25T00:01:16;10.00;99.90
48264;DHT22;34086;51.076;13.722;2023-04-25T00:02:16;10.00;99.90
48264;DHT22;34086;51.076;13.722;2023-04-25T00:03:18;10.00;99.90
48264;DHT22;34086;51.076;13.722;2023-04-25T00:04:18;10.10;99.90
48264;DHT22;34086;51.076;13.722;2023-04-25T00:05:19;10.10;99.90
48264;DHT22;34086;51.076;13.722;2023-04-25T00:06:21;10.10;99.90
48264;DHT22;34086;51.076;13.722;2023-04-25T00:07:21;10.10;99.90
48264;DHT22;34086;51.076;13.722;2023-04-25T00:08:22;10.10;99.90
48264;DHT22;34086;51.076;13.722;2023-04-25T00:09:23;10.10;99.90
48264;DHT22;34086;51.076;13.722;2023-04-25T00:10:23;10.10;99.90
48264;DHT22;34086;51.076;13.722;2023-04-25T00:11:24;10.20;99.90
48264;DHT22;34086;51.076;13.722;2023-04-25T00:12:24;10.20;99.90
48264;DHT22;34086;51.076;13.722;2023-04-25T00:13:25;10.20;99.90
48264;DHT22;34086;51.076;13.722;2023-04-25T00:14:26;10.10;99.90
48264;DHT22;34086;51.076;13.722;2023-04-25T00:15:28;10.10;99.90
48264;DHT22;34086;51.076;13.722;2023-04-25T00:16:30;10.10;99.90
48264;DHT22;34086;51.076;13.722;2023-04-25T00:17:34;10.20;99.90
48264;DHT22;34086;51.076;13.722;2023-04-25T00:18:35;10.10;99.90
48264;DHT22;34086;51.076;13.722;2023-04-25T00:19:36;10.20;99.90
48264;DHT22;34086;51.076;13.722;2023-04-25T00:20:38;10.10;99.90
48264;DHT22;34086;51.076;13.722;2023-04-25T00:21:38;10.20;99.90
48264;DHT22;34086;51.076;13.722;2023-04-25T00:22:40;10.20;99.90
48264;DHT22;34086;51.076;13.722;2023-04-25T00:23:41;10.10;99.90
48264;DHT22;34086;51.076;13.722;2023-04-25T00:24:41;10.10;99.90
48264;DHT22;34086;51.076;13.722;2023-04-25T00:25:42;10.10;99.90
48264;DHT22;34086;51.076;13.722;2023-04-25T00:26:43;10.10;99.90
48264;DHT22;34086;51.076;13.722;2023-04-25T00:27:44;10.10;99.90
48264;DHT22;34086;51.076;13.722;2023-04-25T00:28:44;10.10;99.90
48264;DHT22;34086;51.076;13.722;2023-04-25T00:29:45;10.20;99.90
48264;DHT22;34086;51.076;13.722;2023-04-25T00:30:45;10.20;99.90
48264;DHT22;34086;51.076;13.722;2023-04-25T00:31:46;10.20;99.90
48264;DHT22;34086;51.076;13.722;2023-04-25T00:32:46;10.10;99.90
48264;DHT22;34086;51.076;13.722;2023-04-25T00:33:48;10.10;99.90
48264;DHT22;34086;51.076;13.722;2023-04-25T00:34:48;10.10;99.90
48264;DHT22;34086;51.076;13.722;2023-04-25T00:35:49;10.10;99.90
48264;DHT22;34086;51.076;13.722;2023-04-25T00:36:49;10.00;99.90
48264;DHT22;34086;51.076;13.722;2023-04-25T00:37:50;10.00;99.90
48264;DHT22;34086;51.076;13.722;2023-04-25T00:38:51;10.00;99.90
48264;DHT22;34086;51.076;13.722;2023-04-25T00:39:52;10.00;99.90
48264;DHT22;34086;51.076;13.722;2023-04-25T00:40:55;10.00;99.90
48264;DHT22;34086;51.076;13.722;2023-04-25T00:41:56;10.00;99.90
48264;DHT22;34086;51.076;13.722;2023-04-25T00:42:57;10.00;99.90
48264;DHT22;34086;51.076;13.722;2023-04-25T00:43:59;10.00;99.90
48264;DHT22;34086;51.076;13.722;2023-04-25T00:45:00;10.00;99.90
48264;DHT22;34086;51.076;13.722;2023-04-25T00:46:01;9.90;99.90
48264;DHT22;34086;51.076;13.722;2023-04-25T00:47:02;9.90;99.90
48264;DHT22;34086;51.076;13.722;2023-04-25T00:48:04;9.90;99.90
48264;DHT22;34086;51.076;13.722;2023-04-25T00:49:05;9.90;99.90
48264;DHT22;34086;51.076;13.722;2023-04-25T00:50:06;9.90;99.90
48264;DHT22;34086;51.076;13.722;2023-04-25T00:51:06;9.80;99.90
48264;DHT22;34086;51.076;13.722;2023-04-25T00:52:07;9.80;99.90
48264;DHT22;34086;51.076;13.722;2023-04-25T00:53:08;9.80;99.90
48264;DHT22;34086;51.076;13.722;2023-04-25T00:54:14;9.80;99.90
48264;DHT22;34086;51.076;13.722;2023-04-25T00:55:14;9.70;99.90
48264;DHT22;34086;51.076;13.722;2023-04-25T00:56:16;9.70;99.90
48264;DHT22;34086;51.076;13.722;2023-04-25T00:57:17;9.60;99.90
48264;DHT22;34086;51.076;13.722;2023-04-25T00:58:20;9.60;99.90
48264;DHT22;34086;51.076;13.722;2023-04-25T00:59:21;9.60;99.90
48264;DHT22;34086;51.076;13.722;2023-04-25T01:00:21;9.50;99.90
48264;DHT22;34086;51.076;13.722;2023-04-25T01:01:22;9.50;99.90
48264;DHT22;34086;51.076;13.722;2023-04-25T01:02:23;9.40;99.90
48264;DHT22;34086;51.076;13.722;2023-04-25T01:03:24;9.40;99.90
48264;DHT22;34086;51.076;13.722;2023-04-25T01:04:27;9.40;99.90
48264;DHT22;34086;51.076;13.722;2023-04-25T01:05:27;9.40;99.90
48264;DHT22;34086;51.076;13.722;2023-04-25T01:06:28;9.30;99.90
48264;DHT22;34086;51.076;13.722;2023-04-25T01:07:29;9.30;99.90
48264;DHT22;34086;51.076;13.722;2023-04-25T01:08:31;9.20;99.90
48264;DHT22;34086;51.076;13.722;2023-04-25T01:09:31;9.20;99.90
48264;DHT22;34086;51.076;13.722;2023-04-25T01:10:32;9.20;99.90
48264;DHT22;34086;51.076;13.722;2023-04-25T01:11:33;9.20;99.90
48264;DHT22;34086;51.076;13.722;2023-04-25T01:12:33;9.20;99.90
48264;DHT22;34086;51.076;13.722;2023-04-25T01:13:34;9.20;99.90
48264;DHT22;34086;51.076;13.722;2023-04-25T01:14:35;9.20;99.90
48264;DHT22;34086;51.076;13.722;2023-04-25T01:15:36;9.10;99.90
48264;DHT22;34086;51.076;13.722;2023-04-25T01:16:36;9.10;99.90
48264;DHT22;34086;51.076;13.722;2023-04-25T01:17:40;9.10;99.90
48264;DHT22;34086;51.076;13.722;2023-04-25T01:18:41;9.10;99.90
48264;DHT22;34086;51.076;13.722;2023-04-25T01:19:42;9.10;99.90
48264;DHT22;34086;51.076;13.722;2023-04-25T01:20:44;9.10;99.90
48264;DHT22;34086;51.076;13.722;2023-04-25T01:21:46;9.10;99.90
48264;DHT22;34086;51.076;13.722;2023-04-25T01:22:47;9.00;99.90
48264;DHT22;34086;51.076;13.722;2023-04-25T01:23:48;9.00;99.90
48264;DHT22;34086;51.076;13.722;2023-04-25T01:24:49;9.00;99.90
48264;DHT22;34086;51.076;13.722;2023-04-25T01:25:50;9.00;99.90
48264;DHT22;34086;51.076;13.722;2023-04-25T01:26:51;9.00;99.90
48264;DHT22;34086;51.076;13.722;2023-04-25T01:27:57;9.00;99.90
48264;DHT22;34086;51.076;13.722;2023-04-25T01:28:58;9.00;99.90
48264;DHT22;34086;51.076;13.722;2023-04-25T01:30:00;8.90;99.90
48264;DHT22;34086;51.076;13.722;2023-04-25T01:31:01;8.90;99.90
48264;DHT22;34086;51.076;13.722;2023-04-25T01:32:02;8.90;99.90
48264;DHT22;34086;51.076;13.722;2023-04-25T01:33:04;8.90;99.90
48264;DHT22;34086;51.076;13.722;2023-04-25T01:34:06;8.90;99.90
48264;DHT22;34086;51.076;13.722;2023-04-25T01:35:08;8.90;99.90
48264;DHT22;34086;51.076;13.722;2023-04-25T01:36:09;8.80;99.90
48264;DHT22;34086;51.076;13.722;2023-04-25T01:37:10;8.80;99.90
48264;DHT22;34086;51.076;13.722;2023-04-25T01:38:12;8.80;99.90
48264;DHT22;34086;51.076;13.722;2023-04-25T01:39:12;8.80;99.90
48264;DHT22;34086;51.076;13.722;2023-04-25T01:40:13;8.80;99.90
48264;DHT22;34086;51.076;13.722;2023-04-25T01:41:14;8.80;99.90
48264;DHT22;34086;51.076;13.722;2023-04-25T01:42:15;8.80;99.90
48264;DHT22;34086;51.076;13.722;2023-04-25T01:43:16;8.80;99.90
48264;DHT22;34086;51.076;13.722;2023-04-25T01:44:17;8.70;99.90
48264;DHT22;34086;51.076;13.722;2023-04-25T01:45:17;8.70;99.90
48264;DHT22;34086;51.076;13.722;2023-04-25T01:46:18;8.70;99.90
48264;DHT22;34086;51.076;13.722;2023-04-25T01:47:19;8.70;99.90
48264;DHT22;34086;51.076;13.722;2023-04-25T01:48:19;8.70;99.90
48264;DHT22;34086;51.076;13.722;2023-04-25T01:49:21;8.70;99.90
48264;DHT22;34086;51.076;13.722;2023-04-25T01:50:22;8.60;99.90
48264;DHT22;34086;51.076;13.722;2023-04-25T01:51:23;8.60;99.90
48264;DHT22;34086;51.076;13.722;2023-04-25T01:52:24;8.60;99.90
48264;DHT22;34086;51.076;13.722;2023-04-25T01:53:25;8.60;99.90
48264;DHT22;34086;51.076;13.722;2023-04-25T01:54:27;8.60;99.90
48264;DHT22;34086;51.076;13.722;2023-04-25T01:55:28;8.60;99.90
48264;DHT22;34086;51.076;13.722;2023-04-25T01:56:50;8.50;99.90
48264;DHT22;34086;51.076;13.722;2023-04-25T01:57:51;8.50;99.90
48264;DHT22;34086;51.076;13.722;2023-04-25T01:58:56;8.50;99.90
48264;DHT22;34086;51.076;13.722;2023-04-25T02:00:15;8.40;99.90
48264;DHT22;34086;51.076;13.722;2023-04-25T02:01:16;8.40;99.90
48264;DHT22;34086;51.076;13.722;2023-04-25T02:02:23;8.40;99.90
48264;DHT22;34086;51.076;13.722;2023-04-25T02:03:25;8.40;99.90
48264;DHT22;34086;51.076;13.722;2023-04-25T02:04:26;8.40;99.90
48264;DHT22;34086;51.076;13.722;2023-04-25T02:05:27;8.40;99.90
48264;DHT22;34086;51.076;13.722;2023-04-25T02:06:27;8.40;99.90
48264;DHT22;34086;51.076;13.722;2023-04-25T02:07:31;8.40;99.90
48264;DHT22;34086;51.076;13.722;2023-04-25T02:08:32;8.40;99.90
48264;DHT22;34086;51.076;13.722;2023-04-25T02:09:33;8.40;99.90
48264;DHT22;34086;51.076;13.722;2023-04-25T02:10:38;8.40;99.90
48264;DHT22;34086;51.076;13.722;2023-04-25T02:11:50;8.30;99.90
48264;DHT22;34086;51.076;13.722;2023-04-25T02:13:13;8.40;99.90
48264;DHT22;34086;51.076;13.722;2023-04-25T02:14:31;8.30;99.90
48264;DHT22;34086;51.076;13.722;2023-04-25T02:15:41;8.40;99.90
48264;DHT22;34086;51.076;13.722;2023-04-25T02:16:50;8.40;99.90
48264;DHT22;34086;51.076;13.722;2023-04-25T02:17:51;8.40;99.90
48264;DHT22;34086;51.076;13.722;2023-04-25T02:18:54;8.30;99.90
48264;DHT22;34086;51.076;13.722;2023-04-25T02:19:55;8.30;99.90
48264;DHT22;34086;51.076;13.722;2023-04-25T02:20:56;8.30;99.90
48264;DHT22;34086;51.076;13.722;2023-04-25T02:21:56;8.30;99.90
48264;DHT22;34086;51.076;13.722;2023-04-25T02:22:57;8.30;99.90
48264;DHT22;34086;51.076;13.722;2023-04-25T02:23:58;8.30;99.90
48264;DHT22;34086;51.076;13.722;2023-04-25T02:24:58;8.30;99.90
48264;DHT22;34086;51.076;13.722;2023-04-25T02:25:59;8.30;99.90
48264;DHT22;34086;51.076;13.722;2023-04-25T02:27:00;8.30;99.90
48264;DHT22;34086;51.076;13.722;2023-04-25T02:28:00;8.30;99.90
48264;DHT22;34086;51.076;13.722;2023-04-25T02:29:01;8.30;99.90
48264;DHT22;34086;51.076;13.722;2023-04-25T02:30:02;8.30;99.90
48264;DHT22;34086;51.076;13.722;2023-04-25T02:31:03;8.30;99.90
48264;DHT22;34086;51.076;13.722;2023-04-25T02:32:04;8.30;99.90
48264;DHT22;34086;51.076;13.722;2023-04-25T02:33:05;8.30;99.90
48264;DHT22;34086;51.076;13.722;2023-04-25T02:34:06;8.20;99.90
48264;DHT22;34086;51.076;13.722;2023-04-25T02:35:10;8.30;99.90
48264;DHT22;34086;51.076;13.722;2023-04-25T02:36:10;8.30;99.90
48264;DHT22;34086;51.076;13.722;2023-04-25T02:37:11;8.20;99.90
48264;DHT22;34086;51.076;13.722;2023-04-25T02:38:11;8.20;99.90
48264;DHT22;34086;51.076;13.722;2023-04-25T02:39:14;8.20;99.90
48264;DHT22;34086;51.076;13.722;2023-04-25T02:40:14;8.20;99.90
48264;DHT22;34086;51.076;13.722;2023-04-25T02:41:15;8.20;99.90
48264;DHT22;34086;51.076;13.722;2023-04-25T02:42:16;8.20;99.90
48264;DHT22;34086;51.076;13.722;2023-04-25T02:43:16;8.20;99.90
48264;DHT22;34086;51.076;13.722;2023-04-25T02:44:17;8.20;99.90
48264;DHT22;34086;51.076;13.722;2023-04-25T02:45:19;8.20;99.90
48264;DHT22;34086;51.076;13.722;2023-04-25T02:46:20;8.20;99.90
48264;DHT22;34086;51.076;13.722;2023-04-25T02:47:20;8.20;99.90
48264;DHT22;34086;51.076;13.722;2023-04-25T02:48:21;8.10;99.90
48264;DHT22;34086;51.076;13.722;2023-04-25T02:49:23;8.20;99.90
48264;DHT22;34086;51.076;13.722;2023-04-25T02:50:24;8.10;99.90
48264;DHT22;34086;51.076;13.722;2023-04-25T02:51:24;8.10;99.90
48264;DHT22;34086;51.076;13.722;2023-04-25T02:52:25;8.10;99.90
48264;DHT22;34086;51.076;13.722;2023-04-25T02:53:34;8.10;99.90
48264;DHT22;34086;51.076;13.722;2023-04-25T02:54:35;8.10;99.90
48264;DHT22;34086;51.076;13.722;2023-04-25T02:55:37;8.10;99.90
48264;DHT22;34086;51.076;13.722;2023-04-25T02:56:38;8.10;99.90
48264;DHT22;34086;51.076;13.722;2023-04-25T02:57:44;8.10;99.90
48264;DHT22;34086;51.076;13.722;2023-04-25T02:58:48;8.10;99.90
48264;DHT22;34086;51.076;13.722;2023-04-25T02:59:49;8.00;99.90
48264;DHT22;34086;51.076;13.722;2023-04-25T03:00:49;8.00;99.90
48264;DHT22;34086;51.076;13.722;2023-04-25T03:01:51;8.00;99.90
48264;DHT22;34086;51.076;13.722;2023-04-25T03:02:51;8.00;99.90
48264;DHT22;34086;51.076;13.722;2023-04-25T03:03:52;8.00;99.90
48264;DHT22;34086;51.076;13.722;2023-04-25T03:04:52;7.90;99.90
48264;DHT22;34086;51.076;13.722;2023-04-25T03:05:54;7.90;99.90
48264;DHT22;34086;51.076;13.722;2023-04-25T03:06:59;7.90;99.90
48264;DHT22;34086;51.076;13.722;2023-04-25T03:08:00;7.90;99.90
48264;DHT22;34086;51.076;13.722;2023-04-25T03:09:01;7.80;99.90
48264;DHT22;34086;51.076;13.722;2023-04-25T03:10:03;7.80;99.90
48264;DHT22;34086;51.076;13.722;2023-04-25T03:11:07;7.80;99.90
48264;DHT22;34086;51.076;13.722;2023-04-25T03:12:09;7.80;99.90
48264;DHT22;34086;51.076;13.722;2023-04-25T03:13:09;7.80;99.90
48264;DHT22;34086;51.076;13.722;2023-04-25T03:14:11;7.70;99.90
48264;DHT22;34086;51.076;13.722;2023-04-25T03:15:12;7.80;99.90
48264;DHT22;34086;51.076;13.722;2023-04-25T03:16:12;7.80;99.90
48264;DHT22;34086;51.076;13.722;2023-04-25T03:17:13;7.80;99.90
48264;DHT22;34086;51.076;13.722;2023-04-25T03:18:14;7.70;99.90
48264;DHT22;34086;51.076;13.722;2023-04-25T03:19:14;7.80;99.90
48264;DHT22;34086;51.076;13.722;2023-04-25T03:20:17;7.80;99.90
48264;DHT22;34086;51.076;13.722;2023-04-25T03:21:17;7.80;99.90
48264;DHT22;34086;51.076;13.722;2023-04-25T03:22:18;7.70;99.90
48264;DHT22;34086;51.076;13.722;2023-04-25T03:23:19;7.80;99.90
48264;DHT22;34086;51.076;13.722;2023-04-25T03:24:21;7.80;99.90
48264;DHT22;34086;51.076;13.722;2023-04-25T03:25:22;7.80;99.90
48264;DHT22;34086;51.076;13.722;2023-04-25T03:26:22;7.80;99.90
48264;DHT22;34086;51.076;13.722;2023-04-25T03:27:23;7.80;99.90
48264;DHT22;34086;51.076;13.722;2023-04-25T03:28:25;7.80;99.90
48264;DHT22;34086;51.076;13.722;2023-04-25T03:29:32;7.80;99.90
48264;DHT22;34086;51.076;13.722;2023-04-25T03:30:36;7.80;99.90
48264;DHT22;34086;51.076;13.722;2023-04-25T03:31:37;7.80;99.90
48264;DHT22;34086;51.076;13.722;2023-04-25T03:32:38;7.70;99.90
48264;DHT22;34086;51.076;13.722;2023-04-25T03:33:38;7.70;99.90
48264;DHT22;34086;51.076;13.722;2023-04-25T03:34:39;7.70;99.90
48264;DHT22;34086;51.076;13.722;2023-04-25T03:35:40;7.70;99.90
48264;DHT22;34086;51.076;13.722;2023-04-25T03:36:41;7.70;99.90
48264;DHT22;34086;51.076;13.722;2023-04-25T03:37:42;7.70;99.90
48264;DHT22;34086;51.076;13.722;2023-04-25T03:38:47;7.70;99.90
48264;DHT22;34086;51.076;13.722;2023-04-25T03:39:50;7.70;99.90
48264;DHT22;34086;51.076;13.722;2023-04-25T03:40:51;7.60;99.90
48264;DHT22;34086;51.076;13.722;2023-04-25T03:41:56;7.60;99.90
48264;DHT22;34086;51.076;13.722;2023-04-25T03:42:57;7.60;99.90
48264;DHT22;34086;51.076;13.722;2023-04-25T03:43:57;7.60;99.90
48264;DHT22;34086;51.076;13.722;2023-04-25T03:44:58;7.60;99.90
48264;DHT22;34086;51.076;13.722;2023-04-25T03:45:58;7.60;99.90
48264;DHT22;34086;51.076;13.722;2023-04-25T03:46:59;7.60;99.90
48264;DHT22;34086;51.076;13.722;2023-04-25T03:48:00;7.50;99.90
48264;DHT22;34086;51.076;13.722;2023-04-25T03:49:03;7.50;99.90
48264;DHT22;34086;51.076;13.722;2023-04-25T03:50:22;7.50;99.90
48264;DHT22;34086;51.076;13.722;2023-04-25T03:51:22;7.50;99.90
48264;DHT22;34086;51.076;13.722;2023-04-25T03:52:23;7.50;99.90
48264;DHT22;34086;51.076;13.722;2023-04-25T03:53:24;7.50;99.90
48264;DHT22;34086;51.076;13.722;2023-04-25T03:54:57;7.50;99.90
48264;DHT22;34086;51.076;13.722;2023-04-25T03:55:59;7.50;99.90
48264;DHT22;34086;51.076;13.722;2023-04-25T03:57:00;7.40;99.90
48264;DHT22;34086;51.076;13.722;2023-04-25T03:58:02;7.40;99.90
48264;DHT22;34086;51.076;13.722;2023-04-25T03:59:03;7.40;99.90
48264;DHT22;34086;51.076;13.722;2023-04-25T04:00:05;7.40;99.90
48264;DHT22;34086;51.076;13.722;2023-04-25T04:01:13;7.50;99.90
48264;DHT22;34086;51.076;13.722;2023-04-25T04:02:14;7.50;99.90
48264;DHT22;34086;51.076;13.722;2023-04-25T04:03:16;7.50;99.90
48264;DHT22;34086;51.076;13.722;2023-04-25T04:04:17;7.60;99.90
48264;DHT22;34086;51.076;13.722;2023-04-25T04:05:17;7.50;99.90
48264;DHT22;34086;51.076;13.722;2023-04-25T04:06:25;7.50;99.90
48264;DHT22;34086;51.076;13.722;2023-04-25T04:07:32;7.60;99.90
48264;DHT22;34086;51.076;13.722;2023-04-25T04:08:34;7.50;99.90
48264;DHT22;34086;51.076;13.722;2023-04-25T04:09:35;7.50;99.90
48264;DHT22;34086;51.076;13.722;2023-04-25T04:10:40;7.60;99.90
48264;DHT22;34086;51.076;13.722;2023-04-25T04:11:42;7.60;99.90
48264;DHT22;34086;51.076;13.722;2023-04-25T04:12:43;7.60;99.90
48264;DHT22;34086;51.076;13.722;2023-04-25T04:13:45;7.60;99.90
48264;DHT22;34086;51.076;13.722;2023-04-25T04:14:45;7.70;99.90
48264;DHT22;34086;51.076;13.722;2023-04-25T04:15:46;7.70;99.90
48264;DHT22;34086;51.076;13.722;2023-04-25T04:16:47;7.70;99.90
48264;DHT22;34086;51.076;13.722;2023-04-25T04:17:48;7.80;99.90
48264;DHT22;34086;51.076;13.722;2023-04-25T04:18:49;7.80;99.90
48264;DHT22;34086;51.076;13.722;2023-04-25T04:19:49;7.80;99.90
48264;DHT22;34086;51.076;13.722;2023-04-25T04:20:53;7.90;99.90
48264;DHT22;34086;51.076;13.722;2023-04-25T04:21:53;7.90;99.90
48264;DHT22;34086;51.076;13.722;2023-04-25T04:22:54;7.90;99.90
48264;DHT22;34086;51.076;13.722;2023-04-25T04:23:56;7.90;99.90
48264;DHT22;34086;51.076;13.722;2023-04-25T04:24:59;7.90;99.90
48264;DHT22;34086;51.076;13.722;2023-04-25T04:26:18;7.90;99.90
48264;DHT22;34086;51.076;13.722;2023-04-25T04:27:27;8.00;99.90
48264;DHT22;34086;51.076;13.722;2023-04-25T04:28:42;8.00;99.90
48264;DHT22;34086;51.076;13.722;2023-04-25T04:30:12;8.00;99.90
48264;DHT22;34086;51.076;13.722;2023-04-25T04:31:26;8.00;99.90
48264;DHT22;34086;51.076;13.722;2023-04-25T04:32:27;8.00;99.90
48264;DHT22;34086;51.076;13.722;2023-04-25T04:33:30;8.00;99.90
48264;DHT22;34086;51.076;13.722;2023-04-25T04:34:35;8.00;99.90
48264;DHT22;34086;51.076;13.722;2023-04-25T04:35:36;8.00;99.90
48264;DHT22;34086;51.076;13.722;2023-04-25T04:36:37;8.00;99.90
48264;DHT22;34086;51.076;13.722;2023-04-25T04:37:38;8.00;99.90
48264;DHT22;34086;51.076;13.722;2023-04-25T04:38:40;8.00;99.90
48264;DHT22;34086;51.076;13.722;2023-04-25T04:39:41;8.00;99.90
48264;DHT22;34086;51.076;13.722;2023-04-25T04:40:51;8.00;99.90
48264;DHT22;34086;51.076;13.722;2023-04-25T04:42:00;8.10;99.90
48264;DHT22;34086;51.076;13.722;2023-04-25T04:43:28;8.10;99.90
48264;DHT22;34086;51.076;13.722;2023-04-25T04:44:48;8.20;99.90
48264;DHT22;34086;51.076;13.722;2023-04-25T04:46:12;8.40;99.90
48264;DHT22;34086;51.076;13.722;2023-04-25T04:47:31;8.50;99.90
48264;DHT22;34086;51.076;13.722;2023-04-25T04:49:11;8.60;99.90
48264;DHT22;34086;51.076;13.722;2023-04-25T04:50:31;8.80;99.90
48264;DHT22;34086;51.076;13.722;2023-04-25T04:51:50;9.00;99.90
48264;DHT22;34086;51.076;13.722;2023-04-25T04:53:27;9.00;99.90
48264;DHT22;34086;51.076;13.722;2023-04-25T04:54:30;9.20;99.90
48264;DHT22;34086;51.076;13.722;2023-04-25T04:55:49;9.30;99.90
48264;DHT22;34086;51.076;13.722;2023-04-25T04:57:26;9.40;99.90
48264;DHT22;34086;51.076;13.722;2023-04-25T04:58:49;9.50;99.90
48264;DHT22;34086;51.076;13.722;2023-04-25T05:00:11;9.60;99.90
48264;DHT22;34086;51.076;13.722;2023-04-25T05:01:35;9.80;99.90
48264;DHT22;34086;51.076;13.722;2023-04-25T05:02:43;10.00;99.90
48264;DHT22;34086;51.076;13.722;2023-04-25T05:04:03;10.20;99.90
48264;DHT22;34086;51.076;13.722;2023-04-25T05:05:36;10.40;99.90
48264;DHT22;34086;51.076;13.722;2023-04-25T05:06:59;10.70;99.90
48264;DHT22;34086;51.076;13.722;2023-04-25T05:08:17;10.90;99.90
48264;DHT22;34086;51.076;13.722;2023-04-25T05:09:39;11.20;99.90
48264;DHT22;34086;51.076;13.722;2023-04-25T05:10:58;11.40;99.90
48264;DHT22;34086;51.076;13.722;2023-04-25T05:12:14;11.70;99.90
48264;DHT22;34086;51.076;13.722;2023-04-25T05:13:23;12.00;99.90
48264;DHT22;34086;51.076;13.722;2023-04-25T05:14:42;12.20;99.90
48264;DHT22;34086;51.076;13.722;2023-04-25T05:16:02;12.20;99.90
48264;DHT22;34086;51.076;13.722;2023-04-25T05:17:20;12.50;99.90
48264;DHT22;34086;51.076;13.722;2023-04-25T05:18:41;12.70;99.90
48264;DHT22;34086;51.076;13.722;2023-04-25T05:20:01;12.70;99.90
48264;DHT22;34086;51.076;13.722;2023-04-25T05:21:31;12.80;99.90
48264;DHT22;34086;51.076;13.722;2023-04-25T05:22:50;12.90;99.90
48264;DHT22;34086;51.076;13.722;2023-04-25T05:24:05;13.10;99.90
48264;DHT22;34086;51.076;13.722;2023-04-25T05:25:24;13.20;99.90
48264;DHT22;34086;51.076;13.722;2023-04-25T05:26:33;13.30;99.90
48264;DHT22;34086;51.076;13.722;2023-04-25T05:27:48;13.30;99.90
48264;DHT22;34086;51.076;13.722;2023-04-25T05:29:04;13.30;99.90
48264;DHT22;34086;51.076;13.722;2023-04-25T05:30:24;13.50;99.90
48264;DHT22;34086;51.076;13.722;2023-04-25T05:31:44;13.50;99.90
48264;DHT22;34086;51.076;13.722;2023-04-25T05:32:48;13.50;99.90
48264;DHT22;34086;51.076;13.722;2023-04-25T05:33:49;13.70;99.90
48264;DHT22;34086;51.076;13.722;2023-04-25T05:34:50;13.70;99.90
48264;DHT22;34086;51.076;13.722;2023-04-25T05:35:59;13.70;99.90
48264;DHT22;34086;51.076;13.722;2023-04-25T05:37:01;13.80;99.90
48264;DHT22;34086;51.076;13.722;2023-04-25T05:38:02;13.90;99.90
48264;DHT22;34086;51.076;13.722;2023-04-25T05:39:21;13.90;99.60
48264;DHT22;34086;51.076;13.722;2023-04-25T05:40:40;13.80;99.60
48264;DHT22;34086;51.076;13.722;2023-04-25T05:42:12;13.70;99.90
48264;DHT22;34086;51.076;13.722;2023-04-25T05:43:31;13.50;98.50
48264;DHT22;34086;51.076;13.722;2023-04-25T05:44:42;13.40;99.70
48264;DHT22;34086;51.076;13.722;2023-04-25T05:45:53;13.20;99.90
48264;DHT22;34086;51.076;13.722;2023-04-25T05:47:17;12.90;99.90
48264;DHT22;34086;51.076;13.722;2023-04-25T05:48:37;12.60;99.90
48264;DHT22;34086;51.076;13.722;2023-04-25T05:49:55;12.20;99.90
48264;DHT22;34086;51.076;13.722;2023-04-25T05:51:14;12.10;99.90
48264;DHT22;34086;51.076;13.722;2023-04-25T05:52:25;11.90;99.90
48264;DHT22;34086;51.076;13.722;2023-04-25T05:53:36;11.50;99.90
48264;DHT22;34086;51.076;13.722;2023-04-25T05:54:37;11.10;99.90
48264;DHT22;34086;51.076;13.722;2023-04-25T05:55:38;10.90;99.90
48264;DHT22;34086;51.076;13.722;2023-04-25T05:56:53;10.70;99.90
48264;DHT22;34086;51.076;13.722;2023-04-25T05:57:54;10.60;99.90
48264;DHT22;34086;51.076;13.722;2023-04-25T05:58:54;10.50;99.90
48264;DHT22;34086;51.076;13.722;2023-04-25T05:59:55;10.40;99.90
48264;DHT22;34086;51.076;13.722;2023-04-25T06:00:59;10.20;99.90
48264;DHT22;34086;51.076;13.722;2023-04-25T06:02:00;10.10;99.90
48264;DHT22;34086;51.076;13.722;2023-04-25T06:03:01;10.00;99.90
48264;DHT22;34086;51.076;13.722;2023-04-25T06:04:02;10.00;99.90
48264;DHT22;34086;51.076;13.722;2023-04-25T06:05:03;9.90;99.90
48264;DHT22;34086;51.076;13.722;2023-04-25T06:06:04;9.90;99.90
48264;DHT22;34086;51.076;13.722;2023-04-25T06:07:04;9.80;99.90
48264;DHT22;34086;51.076;13.722;2023-04-25T06:08:06;9.80;99.90
48264;DHT22;34086;51.076;13.722;2023-04-25T06:09:07;9.70;99.90
48264;DHT22;34086;51.076;13.722;2023-04-25T06:10:08;9.70;99.90
48264;DHT22;34086;51.076;13.722;2023-04-25T06:11:08;9.70;99.90
48264;DHT22;34086;51.076;13.722;2023-04-25T06:12:09;9.70;99.90
48264;DHT22;34086;51.076;13.722;2023-04-25T06:13:10;9.80;99.90
48264;DHT22;34086;51.076;13.722;2023-04-25T06:14:11;9.80;99.90
48264;DHT22;34086;51.076;13.722;2023-04-25T06:15:19;9.80;99.90
48264;DHT22;34086;51.076;13.722;2023-04-25T06:16:21;9.80;99.90
48264;DHT22;34086;51.076;13.722;2023-04-25T06:17:21;9.80;99.90
48264;DHT22;34086;51.076;13.722;2023-04-25T06:18:24;9.80;99.90
48264;DHT22;34086;51.076;13.722;2023-04-25T06:19:24;9.80;99.90
48264;DHT22;34086;51.076;13.722;2023-04-25T06:20:25;9.80;99.90
48264;DHT22;34086;51.076;13.722;2023-04-25T06:21:27;9.80;99.90
48264;DHT22;34086;51.076;13.722;2023-04-25T06:22:27;9.70;99.90
48264;DHT22;34086;51.076;13.722;2023-04-25T06:23:28;9.80;99.90
48264;DHT22;34086;51.076;13.722;2023-04-25T06:24:36;9.80;99.90
48264;DHT22;34086;51.076;13.722;2023-04-25T06:25:38;9.80;99.90
48264;DHT22;34086;51.076;13.722;2023-04-25T06:26:39;9.80;99.90
48264;DHT22;34086;51.076;13.722;2023-04-25T06:27:40;9.80;99.90
48264;DHT22;34086;51.076;13.722;2023-04-25T06:28:41;9.80;99.90
48264;DHT22;34086;51.076;13.722;2023-04-25T06:29:44;9.70;99.90
48264;DHT22;34086;51.076;13.722;2023-04-25T06:30:44;9.80;99.90
48264;DHT22;34086;51.076;13.722;2023-04-25T06:31:48;9.80;99.90
48264;DHT22;34086;51.076;13.722;2023-04-25T06:32:49;9.80;99.90
48264;DHT22;34086;51.076;13.722;2023-04-25T06:33:50;9.70;99.90
48264;DHT22;34086;51.076;13.722;2023-04-25T06:34:51;9.70;99.90
48264;DHT22;34086;51.076;13.722;2023-04-25T06:35:51;9.60;99.90
48264;DHT22;34086;51.076;13.722;2023-04-25T06:36:57;9.60;99.90
48264;DHT22;34086;51.076;13.722;2023-04-25T06:37:57;9.60;99.90
48264;DHT22;34086;51.076;13.722;2023-04-25T06:38:59;9.60;99.90
48264;DHT22;34086;51.076;13.722;2023-04-25T06:40:00;9.60;99.90
48264;DHT22;34086;51.076;13.722;2023-04-25T06:41:01;9.60;99.90
48264;DHT22;34086;51.076;13.722;2023-04-25T06:42:05;9.60;99.90
48264;DHT22;34086;51.076;13.722;2023-04-25T06:43:15;9.60;99.90
48264;DHT22;34086;51.076;13.722;2023-04-25T06:44:28;9.70;99.90
48264;DHT22;34086;51.076;13.722;2023-04-25T06:45:30;9.70;99.90
48264;DHT22;34086;51.076;13.722;2023-04-25T06:46:30;9.80;99.90